sensor_id;sensor_type;location;lat;lon;timestamp;temperature;humidity
14172;DHT22;7165;52.388;4.928;2022-11-20T00:01:16;0.50;99.90
14172;DHT22;7165;52.388;4.928;2022-11-20T00:03:43;0.50;99.90
14172;DHT22;7165;52.388;4.928;2022-11-20T00:06:12;0.50;99.90
14172;DHT22;7165;52.388;4.928;2022-11-20T00:08:39;0.40;99.90
14172;DHT22;7165;52.388;4.928;2022-11-20T00:11:07;0.40;99.90
14172;DHT22;7165;52.388;4.928;2022-11-20T00:13:34;0.40;99.90
14172;DHT22;7165;52.388;4.928;2022-11-20T00:16:03;0.30;99.90
14172;DHT22;7165;52.388;4.928;2022-11-20T00:18:32;0.30;99.90
14172;DHT22;7165;52.388;4.928;2022-11-20T00:21:02;0.20;99.90
14172;DHT22;7165;52.388;4.928;2022-11-20T00:23:29;0.30;99.90
14172;DHT22;7165;52.388;4.928;2022-11-20T00:25:56;0.20;99.90
14172;DHT22;7165;52.388;4.928;2022-11-20T00:28:22;0.20;99.90
14172;DHT22;7165;52.388;4.928;2022-11-20T00:30:49;0.20;99.90
14172;DHT22;7165;52.388;4.928;2022-11-20T00:33:16;0.10;99.90
14172;DHT22;7165;52.388;4.928;2022-11-20T00:35:44;0.10;99.90
14172;DHT22;7165;52.388;4.928;2022-11-20T00:38:10;0.20;99.90
14172;DHT22;7165;52.388;4.928;2022-11-20T00:40:37;0.10;99.90
14172;DHT22;7165;52.388;4.928;2022-11-20T00:43:04;0.10;99.90
14172;DHT22;7165;52.388;4.928;2022-11-20T00:45:30;0.00;99.90
14172;DHT22;7165;52.388;4.928;2022-11-20T00:47:57;-0.10;99.90
14172;DHT22;7165;52.388;4.928;2022-11-20T00:50:23;-0.10;99.90
14172;DHT22;7165;52.388;4.928;2022-11-20T00:52:51;-0.20;99.90
14172;DHT22;7165;52.388;4.928;2022-11-20T00:55:18;-0.30;99.90
14172;DHT22;7165;52.388;4.928;2022-11-20T00:57:45;-0.40;99.90
14172;DHT22;7165;52.388;4.928;2022-11-20T01:00:11;-0.40;99.90
14172;DHT22;7165;52.388;4.928;2022-11-20T01:02:38;-0.40;99.90
14172;DHT22;7165;52.388;4.928;2022-11-20T01:05:05;-0.40;99.90
14172;DHT22;7165;52.388;4.928;2022-11-20T01:07:32;-0.50;99.90
14172;DHT22;7165;52.388;4.928;2022-11-20T01:10:00;-0.50;99.90
14172;DHT22;7165;52.388;4.928;2022-11-20T01:12:26;-0.60;99.90
14172;DHT22;7165;52.388;4.928;2022-11-20T01:14:53;-0.60;99.90
14172;DHT22;7165;52.388;4.928;2022-11-20T01:17:20;-0.70;99.90
14172;DHT22;7165;52.388;4.928;2022-11-20T01:19:48;-0.80;99.90
14172;DHT22;7165;52.388;4.928;2022-11-20T01:22:15;-0.80;99.90
14172;DHT22;7165;52.388;4.928;2022-11-20T01:24:42;-0.80;99.90
14172;DHT22;7165;52.388;4.928;2022-11-20T01:27:10;-0.80;99.90
14172;DHT22;7165;52.388;4.928;2022-11-20T01:29:36;-0.80;99.90
14172;DHT22;7165;52.388;4.928;2022-11-20T01:32:03;-0.90;99.90
14172;DHT22;7165;52.388;4.928;2022-11-20T01:34:30;-0.90;99.90
14172;DHT22;7165;52.388;4.928;2022-11-20T01:36:57;-0.90;99.90
14172;DHT22;7165;52.388;4.928;2022-11-20T01:39:25;-0.90;99.90
14172;DHT22;7165;52.388;4.928;2022-11-20T01:41:54;-1.00;99.90
14172;DHT22;7165;52.388;4.928;2022-11-20T01:44:52;-1.00;99.90
14172;DHT22;7165;52.388;4.928;2022-11-20T01:47:23;-1.10;99.90
14172;DHT22;7165;52.388;4.928;2022-11-20T01:49:55;-1.10;99.90
14172;DHT22;7165;52.388;4.928;2022-11-20T01:52:24;-1.10;99.90
14172;DHT22;7165;52.388;4.928;2022-11-20T01:54:56;-1.10;99.90
14172;DHT22;7165;52.388;4.928;2022-11-20T01:57:25;-1.10;99.90
14172;DHT22;7165;52.388;4.928;2022-11-20T02:00:00;-1.20;99.90
14172;DHT22;7165;52.388;4.928;2022-11-20T02:02:28;-1.20;99.90
14172;DHT22;7165;52.388;4.928;2022-11-20T02:04:57;-1.20;99.90
14172;DHT22;7165;52.388;4.928;2022-11-20T02:07:27;-1.20;99.90
14172;DHT22;7165;52.388;4.928;2022-11-20T02:09:54;-1.30;99.90
14172;DHT22;7165;52.388;4.928;2022-11-20T02:12:21;-1.30;99.90
14172;DHT22;7165;52.388;4.928;2022-11-20T02:15:07;-1.30;99.90
14172;DHT22;7165;52.388;4.928;2022-11-20T02:17:34;-1.30;99.90
14172;DHT22;7165;52.388;4.928;2022-11-20T02:20:01;-1.20;99.90
14172;DHT22;7165;52.388;4.928;2022-11-20T02:22:31;-1.20;99.90
14172;DHT22;7165;52.388;4.928;2022-11-20T02:25:02;-1.30;99.90
14172;DHT22;7165;52.388;4.928;2022-11-20T02:27:30;-1.30;99.90
14172;DHT22;7165;52.388;4.928;2022-11-20T02:29:59;-1.30;99.90
14172;DHT22;7165;52.388;4.928;2022-11-20T02:32:29;-1.30;99.90
14172;DHT22;7165;52.388;4.928;2022-11-20T02:34:56;-1.40;99.90
14172;DHT22;7165;52.388;4.928;2022-11-20T02:37:27;-1.40;99.90
14172;DHT22;7165;52.388;4.928;2022-11-20T02:39:56;-1.30;99.90
14172;DHT22;7165;52.388;4.928;2022-11-20T02:42:25;-1.30;99.90
14172;DHT22;7165;52.388;4.928;2022-11-20T02:44:51;-1.40;99.90
14172;DHT22;7165;52.388;4.928;2022-11-20T02:47:18;-1.40;99.90
14172;DHT22;7165;52.388;4.928;2022-11-20T02:49:44;-1.40;99.90
14172;DHT22;7165;52.388;4.928;2022-11-20T02:52:11;-1.40;99.90
14172;DHT22;7165;52.388;4.928;2022-11-20T02:54:38;-1.40;99.90
14172;DHT22;7165;52.388;4.928;2022-11-20T02:57:04;-1.40;99.90
14172;DHT22;7165;52.388;4.928;2022-11-20T02:59:32;-1.30;99.90
14172;DHT22;7165;52.388;4.928;2022-11-20T03:01:59;-1.30;99.90
14172;DHT22;7165;52.388;4.928;2022-11-20T03:04:26;-1.30;99.90
14172;DHT22;7165;52.388;4.928;2022-11-20T03:06:52;-1.30;99.90
14172;DHT22;7165;52.388;4.928;2022-11-20T03:09:19;-1.30;99.90
14172;DHT22;7165;52.388;4.928;2022-11-20T03:11:46;-1.40;99.90
14172;DHT22;7165;52.388;4.928;2022-11-20T03:14:13;-1.40;99.90
14172;DHT22;7165;52.388;4.928;2022-11-20T03:16:41;-1.40;99.90
14172;DHT22;7165;52.388;4.928;2022-11-20T03:19:07;-1.50;99.90
14172;DHT22;7165;52.388;4.928;2022-11-20T03:21:34;-1.50;99.90
14172;DHT22;7165;52.388;4.928;2022-11-20T03:24:01;-1.50;99.90
14172;DHT22;7165;52.388;4.928;2022-11-20T03:26:28;-1.50;99.90
14172;DHT22;7165;52.388;4.928;2022-11-20T03:28:57;-1.50;99.90
14172;DHT22;7165;52.388;4.928;2022-11-20T03:31:25;-1.40;99.90
14172;DHT22;7165;52.388;4.928;2022-11-20T03:33:53;-1.40;99.90
14172;DHT22;7165;52.388;4.928;2022-11-20T03:36:20;-1.30;99.90
14172;DHT22;7165;52.388;4.928;2022-11-20T03:38:48;-1.30;99.90
14172;DHT22;7165;52.388;4.928;2022-11-20T03:41:17;-1.30;99.90
14172;DHT22;7165;52.388;4.928;2022-11-20T03:43:47;-1.30;99.90
14172;DHT22;7165;52.388;4.928;2022-11-20T03:46:14;-1.30;99.90
14172;DHT22;7165;52.388;4.928;2022-11-20T03:48:41;-1.30;99.90
14172;DHT22;7165;52.388;4.928;2022-11-20T03:51:11;-1.30;99.90
14172;DHT22;7165;52.388;4.928;2022-11-20T03:53:38;-1.30;99.90
14172;DHT22;7165;52.388;4.928;2022-11-20T03:56:06;-1.30;99.90
14172;DHT22;7165;52.388;4.928;2022-11-20T03:58:33;-1.30;99.90
14172;DHT22;7165;52.388;4.928;2022-11-20T04:01:05;-1.30;99.90
14172;DHT22;7165;52.388;4.928;2022-11-20T04:03:32;-1.30;99.90
14172;DHT22;7165;52.388;4.928;2022-11-20T04:06:02;-1.30;99.90
14172;DHT22;7165;52.388;4.928;2022-11-20T04:08:31;-1.30;99.90
14172;DHT22;7165;52.388;4.928;2022-11-20T04:11:08;-1.30;99.90
14172;DHT22;7165;52.388;4.928;2022-11-20T04:13:35;-1.30;99.90
14172;DHT22;7165;52.388;4.928;2022-11-20T04:16:02;-1.30;99.90
14172;DHT22;7165;52.388;4.928;2022-11-20T04:18:28;-1.30;99.90
14172;DHT22;7165;52.388;4.928;2022-11-20T04:20:56;-1.40;99.90
14172;DHT22;7165;52.388;4.928;2022-11-20T04:23:23;-1.40;99.90
14172;DHT22;7165;52.388;4.928;2022-11-20T04:25:51;-1.40;99.90
14172;DHT22;7165;52.388;4.928;2022-11-20T04:28:17;-1.50;99.90
14172;DHT22;7165;52.388;4.928;2022-11-20T04:30:44;-1.50;99.90
14172;DHT22;7165;52.388;4.928;2022-11-20T04:33:11;-1.50;99.90
14172;DHT22;7165;52.388;4.928;2022-11-20T04:35:38;-1.60;99.90
14172;DHT22;7165;52.388;4.928;2022-11-20T04:38:04;-1.60;99.90
14172;DHT22;7165;52.388;4.928;2022-11-20T04:40:31;-1.60;99.90
14172;DHT22;7165;52.388;4.928;2022-11-20T04:42:59;-1.70;99.90
14172;DHT22;7165;52.388;4.928;2022-11-20T04:45:26;-1.60;99.90
14172;DHT22;7165;52.388;4.928;2022-11-20T04:47:52;-1.60;99.90
14172;DHT22;7165;52.388;4.928;2022-11-20T04:50:19;-1.50;99.90
14172;DHT22;7165;52.388;4.928;2022-11-20T04:52:46;-1.50;99.90
14172;DHT22;7165;52.388;4.928;2022-11-20T04:55:12;-1.50;99.90
14172;DHT22;7165;52.388;4.928;2022-11-20T04:57:39;-1.50;99.90
14172;DHT22;7165;52.388;4.928;2022-11-20T05:00:08;-1.50;99.90
14172;DHT22;7165;52.388;4.928;2022-11-20T05:02:35;-1.50;99.90
14172;DHT22;7165;52.388;4.928;2022-11-20T05:05:02;-1.50;99.90
14172;DHT22;7165;52.388;4.928;2022-11-20T05:07:29;-1.40;99.90
14172;DHT22;7165;52.388;4.928;2022-11-20T05:09:55;-1.40;99.90
14172;DHT22;7165;52.388;4.928;2022-11-20T05:12:22;-1.30;99.90
14172;DHT22;7165;52.388;4.928;2022-11-20T05:14:48;-1.30;99.90
14172;DHT22;7165;52.388;4.928;2022-11-20T05:17:16;-1.30;99.90
14172;DHT22;7165;52.388;4.928;2022-11-20T05:19:43;-1.30;99.90
14172;DHT22;7165;52.388;4.928;2022-11-20T05:22:10;-1.20;99.90
14172;DHT22;7165;52.388;4.928;2022-11-20T05:24:36;-1.20;99.90
14172;DHT22;7165;52.388;4.928;2022-11-20T05:27:03;-1.30;99.90
14172;DHT22;7165;52.388;4.928;2022-11-20T05:29:30;-1.30;99.90
14172;DHT22;7165;52.388;4.928;2022-11-20T05:31:56;-1.30;99.90
14172;DHT22;7165;52.388;4.928;2022-11-20T05:34:24;-1.30;99.90
14172;DHT22;7165;52.388;4.928;2022-11-20T05:36:51;-1.40;99.90
14172;DHT22;7165;52.388;4.928;2022-11-20T05:39:17;-1.40;99.90
14172;DHT22;7165;52.388;4.928;2022-11-20T05:41:44;-1.30;99.90
14172;DHT22;7165;52.388;4.928;2022-11-20T05:44:11;-1.40;99.90
14172;DHT22;7165;52.388;4.928;2022-11-20T05:46:38;-1.40;99.90
14172;DHT22;7165;52.388;4.928;2022-11-20T05:49:04;-1.40;99.90
14172;DHT22;7165;52.388;4.928;2022-11-20T05:51:32;-1.40;99.90
14172;DHT22;7165;52.388;4.928;2022-11-20T05:53:59;-1.40;99.90
14172;DHT22;7165;52.388;4.928;2022-11-20T05:56:25;-1.40;99.90
14172;DHT22;7165;52.388;4.928;2022-11-20T05:58:52;-1.40;99.90
14172;DHT22;7165;52.388;4.928;2022-11-20T06:01:21;-1.50;99.90
14172;DHT22;7165;52.388;4.928;2022-11-20T06:03:49;-1.50;99.90
14172;DHT22;7165;52.388;4.928;2022-11-20T06:06:16;-1.50;99.90
14172;DHT22;7165;52.388;4.928;2022-11-20T06:08:45;-1.50;99.90
14172;DHT22;7165;52.388;4.928;2022-11-20T06:11:13;-1.50;99.90
14172;DHT22;7165;52.388;4.928;2022-11-20T06:13:40;-1.40;99.90
14172;DHT22;7165;52.388;4.928;2022-11-20T06:16:07;-1.40;99.90
14172;DHT22;7165;52.388;4.928;2022-11-20T06:18:34;-1.40;99.90
14172;DHT22;7165;52.388;4.928;2022-11-20T06:21:02;-1.40;99.90
14172;DHT22;7165;52.388;4.928;2022-11-20T06:23:30;-1.40;99.90
14172;DHT22;7165;52.388;4.928;2022-11-20T06:26:00;-1.30;99.90
14172;DHT22;7165;52.388;4.928;2022-11-20T06:28:27;-1.30;99.90
14172;DHT22;7165;52.388;4.928;2022-11-20T06:30:53;-1.20;99.90
14172;DHT22;7165;52.388;4.928;2022-11-20T06:33:20;-1.20;99.90
14172;DHT22;7165;52.388;4.928;2022-11-20T06:35:47;-1.20;99.90
14172;DHT22;7165;52.388;4.928;2022-11-20T06:38:13;-1.20;99.90
14172;DHT22;7165;52.388;4.928;2022-11-20T06:40:40;-1.10;99.90
14172;DHT22;7165;52.388;4.928;2022-11-20T06:43:08;-1.10;99.90
14172;DHT22;7165;52.388;4.928;2022-11-20T06:45:35;-1.10;99.90
14172;DHT22;7165;52.388;4.928;2022-11-20T06:48:02;-1.10;99.90
14172;DHT22;7165;52.388;4.928;2022-11-20T06:50:29;-1.10;99.90
14172;DHT22;7165;52.388;4.928;2022-11-20T06:52:56;-1.10;99.90
14172;DHT22;7165;52.388;4.928;2022-11-20T06:55:22;-1.00;99.90
14172;DHT22;7165;52.388;4.928;2022-11-20T06:57:50;-1.00;99.90
14172;DHT22;7165;52.388;4.928;2022-11-20T07:00:18;-0.90;99.90
14172;DHT22;7165;52.388;4.928;2022-11-20T07:02:45;-0.90;99.90
14172;DHT22;7165;52.388;4.928;2022-11-20T07:05:12;-0.80;99.90
14172;DHT22;7165;52.388;4.928;2022-11-20T07:07:38;-0.80;99.90
14172;DHT22;7165;52.388;4.928;2022-11-20T07:10:06;-0.80;99.90
14172;DHT22;7165;52.388;4.928;2022-11-20T07:12:32;-0.70;99.90
14172;DHT22;7165;52.388;4.928;2022-11-20T07:14:59;-0.70;99.90
14172;DHT22;7165;52.388;4.928;2022-11-20T07:17:27;-0.70;99.90
14172;DHT22;7165;52.388;4.928;2022-11-20T07:19:54;-0.70;99.90
14172;DHT22;7165;52.388;4.928;2022-11-20T07:22:20;-0.60;99.90
14172;DHT22;7165;52.388;4.928;2022-11-20T07:24:48;-0.60;99.90
14172;DHT22;7165;52.388;4.928;2022-11-20T07:27:14;-0.60;99.90
14172;DHT22;7165;52.388;4.928;2022-11-20T07:29:41;-0.50;99.90
14172;DHT22;7165;52.388;4.928;2022-11-20T07:32:08;-0.50;99.90
14172;DHT22;7165;52.388;4.928;2022-11-20T07:34:36;-0.50;99.90
14172;DHT22;7165;52.388;4.928;2022-11-20T07:37:02;-0.40;99.90
14172;DHT22;7165;52.388;4.928;2022-11-20T07:39:29;-0.40;99.90
14172;DHT22;7165;52.388;4.928;2022-11-20T07:41:55;-0.30;99.90
14172;DHT22;7165;52.388;4.928;2022-11-20T07:44:22;-0.30;99.90
14172;DHT22;7165;52.388;4.928;2022-11-20T07:46:49;-0.20;99.90
14172;DHT22;7165;52.388;4.928;2022-11-20T07:49:15;-0.20;99.90
14172;DHT22;7165;52.388;4.928;2022-11-20T07:51:43;-0.10;99.90
14172;DHT22;7165;52.388;4.928;2022-11-20T07:54:10;-0.10;99.90
14172;DHT22;7165;52.388;4.928;2022-11-20T07:56:36;0.00;99.90
14172;DHT22;7165;52.388;4.928;2022-11-20T07:59:03;0.00;99.90
14172;DHT22;7165;52.388;4.928;2022-11-20T08:01:30;0.10;99.90
14172;DHT22;7165;52.388;4.928;2022-11-20T08:03:56;0.10;99.90
14172;DHT22;7165;52.388;4.928;2022-11-20T08:06:23;0.10;99.90
14172;DHT22;7165;52.388;4.928;2022-11-20T08:08:51;0.10;99.90
14172;DHT22;7165;52.388;4.928;2022-11-20T08:11:18;0.20;99.90
14172;DHT22;7165;52.388;4.928;2022-11-20T08:14:02;0.20;99.90
14172;DHT22;7165;52.388;4.928;2022-11-20T08:16:38;0.30;99.90
14172;DHT22;7165;52.388;4.928;2022-11-20T08:19:05;0.30;99.90
14172;DHT22;7165;52.388;4.928;2022-11-20T08:21:31;0.30;99.90
14172;DHT22;7165;52.388;4.928;2022-11-20T08:24:00;0.30;99.90
14172;DHT22;7165;52.388;4.928;2022-11-20T08:26:26;0.40;99.90
14172;DHT22;7165;52.388;4.928;2022-11-20T08:28:53;0.40;99.90
14172;DHT22;7165;52.388;4.928;2022-11-20T08:31:20;0.50;99.90
14172;DHT22;7165;52.388;4.928;2022-11-20T08:33:47;0.50;99.90
14172;DHT22;7165;52.388;4.928;2022-11-20T08:36:14;0.60;99.90
14172;DHT22;7165;52.388;4.928;2022-11-20T08:38:40;0.60;99.90
14172;DHT22;7165;52.388;4.928;2022-11-20T08:41:08;0.70;99.90
14172;DHT22;7165;52.388;4.928;2022-11-20T08:43:52;0.70;99.90
14172;DHT22;7165;52.388;4.928;2022-11-20T08:46:19;0.80;99.90
14172;DHT22;7165;52.388;4.928;2022-11-20T08:48:46;0.80;99.90
14172;DHT22;7165;52.388;4.928;2022-11-20T08:51:13;0.90;99.90
14172;DHT22;7165;52.388;4.928;2022-11-20T08:53:40;0.90;99.90
14172;DHT22;7165;52.388;4.928;2022-11-20T08:56:08;0.90;99.90
14172;DHT22;7165;52.388;4.928;2022-11-20T08:58:36;1.00;99.90
14172;DHT22;7165;52.388;4.928;2022-11-20T09:01:03;1.00;99.90
14172;DHT22;7165;52.388;4.928;2022-11-20T09:03:30;1.00;99.90
14172;DHT22;7165;52.388;4.928;2022-11-20T09:05:57;1.10;99.90
14172;DHT22;7165;52.388;4.928;2022-11-20T09:08:25;1.10;99.90
14172;DHT22;7165;52.388;4.928;2022-11-20T09:10:51;1.10;99.90
14172;DHT22;7165;52.388;4.928;2022-11-20T09:13:19;1.20;99.90
14172;DHT22;7165;52.388;4.928;2022-11-20T09:15:46;1.20;99.90
14172;DHT22;7165;52.388;4.928;2022-11-20T09:18:13;1.30;99.90
14172;DHT22;7165;52.388;4.928;2022-11-20T09:20:39;1.30;99.90
14172;DHT22;7165;52.388;4.928;2022-11-20T09:23:06;1.40;99.90
14172;DHT22;7165;52.388;4.928;2022-11-20T09:25:33;1.50;99.90
14172;DHT22;7165;52.388;4.928;2022-11-20T09:27:59;1.60;99.90
14172;DHT22;7165;52.388;4.928;2022-11-20T09:30:28;1.60;99.90
14172;DHT22;7165;52.388;4.928;2022-11-20T09:32:54;1.60;99.90
14172;DHT22;7165;52.388;4.928;2022-11-20T09:35:21;1.70;99.90
14172;DHT22;7165;52.388;4.928;2022-11-20T09:37:48;1.80;99.90
14172;DHT22;7165;52.388;4.928;2022-11-20T09:40:19;1.80;99.90
14172;DHT22;7165;52.388;4.928;2022-11-20T09:42:54;1.90;99.90
14172;DHT22;7165;52.388;4.928;2022-11-20T09:45:42;1.90;99.90
14172;DHT22;7165;52.388;4.928;2022-11-20T09:48:28;2.00;99.90
14172;DHT22;7165;52.388;4.928;2022-11-20T09:51:06;2.00;99.90
14172;DHT22;7165;52.388;4.928;2022-11-20T09:53:40;2.10;99.90
14172;DHT22;7165;52.388;4.928;2022-11-20T09:56:19;2.10;99.90
14172;DHT22;7165;52.388;4.928;2022-11-20T09:58:50;2.20;99.90
14172;DHT22;7165;52.388;4.928;2022-11-20T10:01:20;2.20;99.90
14172;DHT22;7165;52.388;4.928;2022-11-20T10:03:54;2.30;99.90
14172;DHT22;7165;52.388;4.928;2022-11-20T10:06:27;2.40;99.90
14172;DHT22;7165;52.388;4.928;2022-11-20T10:09:01;2.60;99.90
14172;DHT22;7165;52.388;4.928;2022-11-20T10:11:35;2.60;99.90
14172;DHT22;7165;52.388;4.928;2022-11-20T10:14:15;2.70;99.90
14172;DHT22;7165;52.388;4.928;2022-11-20T10:16:53;2.70;99.90
14172;DHT22;7165;52.388;4.928;2022-11-20T10:19:37;2.80;99.90
14172;DHT22;7165;52.388;4.928;2022-11-20T10:22:15;2.80;99.90
14172;DHT22;7165;52.388;4.928;2022-11-20T10:24:49;2.80;99.90
14172;DHT22;7165;52.388;4.928;2022-11-20T10:30:20;2.90;99.90
14172;DHT22;7165;52.388;4.928;2022-11-20T10:32:53;2.90;99.90
14172;DHT22;7165;52.388;4.928;2022-11-20T10:35:23;3.00;99.90
14172;DHT22;7165;52.388;4.928;2022-11-20T10:37:54;3.00;99.90
14172;DHT22;7165;52.388;4.928;2022-11-20T10:40:29;3.00;99.90
14172;DHT22;7165;52.388;4.928;2022-11-20T10:43:00;3.10;99.90
14172;DHT22;7165;52.388;4.928;2022-11-20T10:48:21;3.10;99.90
14172;DHT22;7165;52.388;4.928;2022-11-20T10:50:59;3.10;99.90
14172;DHT22;7165;52.388;4.928;2022-11-20T10:53:45;3.20;99.90
14172;DHT22;7165;52.388;4.928;2022-11-20T10:56:19;3.10;99.90
14172;DHT22;7165;52.388;4.928;2022-11-20T10:59:04;3.10;99.90
14172;DHT22;7165;52.388;4.928;2022-11-20T11:01:40;3.10;99.90
14172;DHT22;7165;52.388;4.928;2022-11-20T11:04:28;3.10;99.90
14172;DHT22;7165;52.388;4.928;2022-11-20T11:07:01;3.00;99.90
14172;DHT22;7165;52.388;4.928;2022-11-20T11:09:34;3.00;99.90
14172;DHT22;7165;52.388;4.928;2022-11-20T11:12:06;3.00;99.90
14172;DHT22;7165;52.388;4.928;2022-11-20T11:14:42;3.00;99.90
14172;DHT22;7165;52.388;4.928;2022-11-20T11:17:20;3.00;99.90
14172;DHT22;7165;52.388;4.928;2022-11-20T11:19:58;3.00;99.90
14172;DHT22;7165;52.388;4.928;2022-11-20T11:22:28;3.00;99.90
14172;DHT22;7165;52.388;4.928;2022-11-20T11:24:56;3.00;99.90
14172;DHT22;7165;52.388;4.928;2022-11-20T11:27:23;3.00;99.90
14172;DHT22;7165;52.388;4.928;2022-11-20T11:29:49;3.00;99.90
14172;DHT22;7165;52.388;4.928;2022-11-20T11:32:19;3.00;99.90
14172;DHT22;7165;52.388;4.928;2022-11-20T11:35:00;3.10;99.90
14172;DHT22;7165;52.388;4.928;2022-11-20T11:37:29;3.10;99.90
14172;DHT22;7165;52.388;4.928;2022-11-20T11:39:59;3.10;99.90
14172;DHT22;7165;52.388;4.928;2022-11-20T11:42:28;3.10;99.90
14172;DHT22;7165;52.388;4.928;2022-11-20T11:44:57;3.20;99.90
14172;DHT22;7165;52.388;4.928;2022-11-20T11:47:36;3.20;99.90
14172;DHT22;7165;52.388;4.928;2022-11-20T11:50:17;3.20;99.90
14172;DHT22;7165;52.388;4.928;2022-11-20T11:52:46;3.30;99.90
14172;DHT22;7165;52.388;4.928;2022-11-20T11:55:19;3.30;99.90
14172;DHT22;7165;52.388;4.928;2022-11-20T11:57:51;3.30;99.90
14172;DHT22;7165;52.388;4.928;2022-11-20T12:00:21;3.30;99.90
14172;DHT22;7165;52.388;4.928;2022-11-20T12:02:56;3.30;99.90
14172;DHT22;7165;52.388;4.928;2022-11-20T12:05:27;3.20;99.90
14172;DHT22;7165;52.388;4.928;2022-11-20T12:07:57;3.10;99.90
14172;DHT22;7165;52.388;4.928;2022-11-20T12:10:37;3.10;99.90
14172;DHT22;7165;52.388;4.928;2022-11-20T12:13:15;3.00;99.90
14172;DHT22;7165;52.388;4.928;2022-11-20T12:15:45;3.00;99.90
14172;DHT22;7165;52.388;4.928;2022-11-20T12:18:16;3.00;99.90
14172;DHT22;7165;52.388;4.928;2022-11-20T12:20:52;3.00;99.90
14172;DHT22;7165;52.388;4.928;2022-11-20T12:23:27;3.00;99.90
14172;DHT22;7165;52.388;4.928;2022-11-20T12:25:57;3.00;99.90
14172;DHT22;7165;52.388;4.928;2022-11-20T12:28:53;3.00;99.90
14172;DHT22;7165;52.388;4.928;2022-11-20T12:31:52;3.10;99.90
14172;DHT22;7165;52.388;4.928;2022-11-20T12:34:40;3.00;99.90
14172;DHT22;7165;52.388;4.928;2022-11-20T12:37:22;3.00;99.90
14172;DHT22;7165;52.388;4.928;2022-11-20T12:39:55;3.00;99.90
14172;DHT22;7165;52.388;4.928;2022-11-20T12:42:42;3.10;99.90
14172;DHT22;7165;52.388;4.928;2022-11-20T12:45:54;3.10;99.90
14172;DHT22;7165;52.388;4.928;2022-11-20T12:48:46;3.20;99.90
14172;DHT22;7165;52.388;4.928;2022-11-20T12:54:46;3.20;99.90
14172;DHT22;7165;52.388;4.928;2022-11-20T12:57:21;3.20;99.90
14172;DHT22;7165;52.388;4.928;2022-11-20T13:00:15;3.20;99.90
14172;DHT22;7165;52.388;4.928;2022-11-20T13:03:01;3.20;99.90
14172;DHT22;7165;52.388;4.928;2022-11-20T13:05:37;3.20;99.90
14172;DHT22;7165;52.388;4.928;2022-11-20T13:08:14;3.20;99.90
14172;DHT22;7165;52.388;4.928;2022-11-20T13:10:50;3.30;99.90
14172;DHT22;7165;52.388;4.928;2022-11-20T13:13:24;3.30;99.90
14172;DHT22;7165;52.388;4.928;2022-11-20T13:15:57;3.30;99.90
14172;DHT22;7165;52.388;4.928;2022-11-20T13:18:26;3.30;99.90
14172;DHT22;7165;52.388;4.928;2022-11-20T13:20:52;3.30;99.90
14172;DHT22;7165;52.388;4.928;2022-11-20T13:23:26;3.40;99.90
14172;DHT22;7165;52.388;4.928;2022-11-20T13:26:05;3.40;99.90
14172;DHT22;7165;52.388;4.928;2022-11-20T13:28:32;3.40;99.90
14172;DHT22;7165;52.388;4.928;2022-11-20T13:30:59;3.40;99.90
14172;DHT22;7165;52.388;4.928;2022-11-20T13:33:29;3.30;99.90
14172;DHT22;7165;52.388;4.928;2022-11-20T13:35:59;3.30;99.90
14172;DHT22;7165;52.388;4.928;2022-11-20T13:38:26;3.30;99.90
14172;DHT22;7165;52.388;4.928;2022-11-20T13:40:55;3.30;99.90
14172;DHT22;7165;52.388;4.928;2022-11-20T13:43:28;3.20;99.90
14172;DHT22;7165;52.388;4.928;2022-11-20T13:46:00;3.20;99.90
14172;DHT22;7165;52.388;4.928;2022-11-20T13:48:32;3.20;99.90
14172;DHT22;7165;52.388;4.928;2022-11-20T13:51:15;3.20;99.90
14172;DHT22;7165;52.388;4.928;2022-11-20T13:54:06;3.20;99.90
14172;DHT22;7165;52.388;4.928;2022-11-20T13:56:47;3.20;99.90
14172;DHT22;7165;52.388;4.928;2022-11-20T13:59:33;3.20;99.90
14172;DHT22;7165;52.388;4.928;2022-11-20T14:02:03;3.20;99.90
14172;DHT22;7165;52.388;4.928;2022-11-20T14:04:33;3.20;99.90
14172;DHT22;7165;52.388;4.928;2022-11-20T14:07:01;3.20;99.90
14172;DHT22;7165;52.388;4.928;2022-11-20T14:09:33;3.20;99.90
14172;DHT22;7165;52.388;4.928;2022-11-20T14:12:01;3.20;99.90
14172;DHT22;7165;52.388;4.928;2022-11-20T14:14:30;3.30;99.90
14172;DHT22;7165;52.388;4.928;2022-11-20T14:17:05;3.30;99.90
14172;DHT22;7165;52.388;4.928;2022-11-20T14:19:32;3.40;99.90
14172;DHT22;7165;52.388;4.928;2022-11-20T14:22:18;3.40;99.90
14172;DHT22;7165;52.388;4.928;2022-11-20T14:24:45;3.40;99.90
14172;DHT22;7165;52.388;4.928;2022-11-20T14:27:14;3.40;99.90
14172;DHT22;7165;52.388;4.928;2022-11-20T14:29:44;3.40;99.90
14172;DHT22;7165;52.388;4.928;2022-11-20T14:32:10;3.40;99.90
14172;DHT22;7165;52.388;4.928;2022-11-20T14:34:39;3.40;99.90
14172;DHT22;7165;52.388;4.928;2022-11-20T14:37:11;3.40;99.90
14172;DHT22;7165;52.388;4.928;2022-11-20T14:39:41;3.40;99.90
14172;DHT22;7165;52.388;4.928;2022-11-20T14:42:15;3.40;99.90
14172;DHT22;7165;52.388;4.928;2022-11-20T14:44:44;3.40;99.90
14172;DHT22;7165;52.388;4.928;2022-11-20T14:47:12;3.40;99.90
14172;DHT22;7165;52.388;4.928;2022-11-20T14:49:40;3.40;99.90
14172;DHT22;7165;52.388;4.928;2022-11-20T14:52:14;3.40;99.90
14172;DHT22;7165;52.388;4.928;2022-11-20T14:54:45;3.40;99.90
14172;DHT22;7165;52.388;4.928;2022-11-20T14:57:23;3.40;99.90
14172;DHT22;7165;52.388;4.928;2022-11-20T14:59:51;3.40;99.90
14172;DHT22;7165;52.388;4.928;2022-11-20T15:02:18;3.40;99.90
14172;DHT22;7165;52.388;4.928;2022-11-20T15:04:46;3.40;99.90
14172;DHT22;7165;52.388;4.928;2022-11-20T15:07:23;3.40;99.90
14172;DHT22;7165;52.388;4.928;2022-11-20T15:09:59;3.40;99.90
14172;DHT22;7165;52.388;4.928;2022-11-20T15:12:26;3.40;99.90
14172;DHT22;7165;52.388;4.928;2022-11-20T15:14:55;3.40;99.90
14172;DHT22;7165;52.388;4.928;2022-11-20T15:17:21;3.40;99.90
14172;DHT22;7165;52.388;4.928;2022-11-20T15:19:48;3.40;99.90
14172;DHT22;7165;52.388;4.928;2022-11-20T15:22:15;3.50;99.90
14172;DHT22;7165;52.388;4.928;2022-11-20T15:24:42;3.50;99.90
14172;DHT22;7165;52.388;4.928;2022-11-20T15:27:09;3.50;99.90
14172;DHT22;7165;52.388;4.928;2022-11-20T15:29:36;3.50;99.90
14172;DHT22;7165;52.388;4.928;2022-11-20T15:32:05;3.50;99.90
14172;DHT22;7165;52.388;4.928;2022-11-20T15:34:31;3.50;99.90
14172;DHT22;7165;52.388;4.928;2022-11-20T15:36:58;3.50;99.90
14172;DHT22;7165;52.388;4.928;2022-11-20T15:39:25;3.50;99.90
14172;DHT22;7165;52.388;4.928;2022-11-20T15:41:51;3.50;99.90
14172;DHT22;7165;52.388;4.928;2022-11-20T15:44:18;3.50;99.90
14172;DHT22;7165;52.388;4.928;2022-11-20T15:46:45;3.50;99.90
14172;DHT22;7165;52.388;4.928;2022-11-20T15:49:14;3.50;99.90
14172;DHT22;7165;52.388;4.928;2022-11-20T15:51:43;3.60;99.90
14172;DHT22;7165;52.388;4.928;2022-11-20T15:54:12;3.60;99.90
14172;DHT22;7165;52.388;4.928;2022-11-20T15:56:39;3.60;99.90
14172;DHT22;7165;52.388;4.928;2022-11-20T15:59:06;3.60;99.90
14172;DHT22;7165;52.388;4.928;2022-11-20T16:01:33;3.60;99.90
14172;DHT22;7165;52.388;4.928;2022-11-20T16:04:00;3.60;99.90
14172;DHT22;7165;52.388;4.928;2022-11-20T16:06:28;3.60;99.90
14172;DHT22;7165;52.388;4.928;2022-11-20T16:08:54;3.60;99.90
14172;DHT22;7165;52.388;4.928;2022-11-20T16:11:21;3.60;99.90
14172;DHT22;7165;52.388;4.928;2022-11-20T16:13:47;3.60;99.90
14172;DHT22;7165;52.388;4.928;2022-11-20T16:16:34;3.60;99.90
14172;DHT22;7165;52.388;4.928;2022-11-20T16:19:02;3.70;99.90
14172;DHT22;7165;52.388;4.928;2022-11-20T16:21:31;3.70;99.90